createdAt,value
2016-12-27T00:00:22.069Z,1024.41
2016-12-27T00:01:22.048Z,1024.46
2016-12-27T00:02:22.025Z,1024.48
2016-12-27T00:03:22.006Z,1024.59
2016-12-27T00:04:21.989Z,1024.52
2016-12-27T00:05:21.965Z,1024.53
2016-12-27T00:06:21.943Z,1024.5
2016-12-27T00:07:21.925Z,1024.53
2016-12-27T00:08:21.902Z,1024.51
2016-12-27T00:09:21.881Z,1024.38
2016-12-27T00:10:21.861Z,1024.42
2016-12-27T00:11:21.840Z,1024.33
2016-12-27T00:12:21.819Z,1024.34
2016-12-27T00:13:21.799Z,1024.26
2016-12-27T00:14:21.779Z,1024.32
2016-12-27T00:15:21.757Z,1024.3
2016-12-27T00:16:21.737Z,1024.35
2016-12-27T00:17:21.716Z,1024.46
2016-12-27T00:18:21.695Z,1024.45
2016-12-27T00:19:21.676Z,1024.42
2016-12-27T00:20:21.654Z,1024.41
2016-12-27T00:21:21.632Z,1024.44
2016-12-27T00:22:21.612Z,1024.38
2016-12-27T00:23:21.590Z,1024.43
2016-12-27T00:24:21.569Z,1024.45
2016-12-27T00:25:21.548Z,1024.49
2016-12-27T00:26:21.527Z,1024.45
2016-12-27T00:27:21.507Z,1024.46
2016-12-27T00:28:21.486Z,1024.55
2016-12-27T00:29:21.464Z,1024.54
2016-12-27T00:30:21.445Z,1024.6
2016-12-27T00:31:21.423Z,1024.53
2016-12-27T00:32:21.402Z,1024.6
2016-12-27T00:33:21.382Z,1024.64
2016-12-27T00:34:21.361Z,1024.65
2016-12-27T00:35:21.340Z,1024.6
2016-12-27T00:36:21.521Z,1024.62
2016-12-27T00:37:21.298Z,1024.61
2016-12-27T00:38:21.276Z,1024.62
2016-12-27T00:39:21.255Z,1024.65
2016-12-27T00:40:21.234Z,1024.73
2016-12-27T00:41:21.213Z,1024.65
2016-12-27T00:42:21.192Z,1024.65
2016-12-27T00:43:21.275Z,1024.72
2016-12-27T00:44:21.150Z,1024.67
2016-12-27T00:45:21.131Z,1024.63
2016-12-27T00:46:21.109Z,1024.68
2016-12-27T00:47:21.095Z,1024.73
2016-12-27T00:48:21.066Z,1024.78
2016-12-27T00:49:21.049Z,1024.72
2016-12-27T00:50:21.027Z,1024.75
2016-12-27T00:51:21.006Z,1024.81
2016-12-27T00:52:20.985Z,1024.78
2016-12-27T00:53:20.963Z,1024.84
2016-12-27T00:54:20.942Z,1024.84
2016-12-27T00:55:20.922Z,1024.89
2016-12-27T00:56:20.901Z,1024.83
2016-12-27T00:57:20.879Z,1024.83
2016-12-27T00:58:20.863Z,1024.81
2016-12-27T00:59:20.839Z,1024.87
2016-12-27T01:00:20.815Z,1024.93
2016-12-27T01:01:20.795Z,1024.92
2016-12-27T01:02:20.775Z,1024.91
2016-12-27T01:03:20.756Z,1024.93
2016-12-27T01:04:20.731Z,1024.91
2016-12-27T01:05:20.713Z,1024.9
2016-12-27T01:06:20.693Z,1024.95
2016-12-27T01:07:20.669Z,1024.86
2016-12-27T01:08:20.649Z,1024.97
2016-12-27T01:09:20.631Z,1025.06
2016-12-27T01:10:20.607Z,1024.9
2016-12-27T01:11:20.586Z,1024.94
2016-12-27T01:12:20.565Z,1025.06
2016-12-27T01:13:20.546Z,1024.97
2016-12-27T01:14:20.523Z,1025.02
2016-12-27T01:15:20.503Z,1025.07
2016-12-27T01:16:20.480Z,1025.16
2016-12-27T01:17:20.460Z,1025.13
2016-12-27T01:18:20.438Z,1025.26
2016-12-27T01:19:20.417Z,1025.15
2016-12-27T01:20:20.396Z,1025.09
2016-12-27T01:21:20.377Z,1025.12
2016-12-27T01:22:20.355Z,1025.12
2016-12-27T01:23:20.336Z,1025.21
2016-12-27T01:24:20.315Z,1025.16
2016-12-27T01:25:20.292Z,1025.18
2016-12-27T01:26:20.271Z,1025.16
2016-12-27T01:27:20.251Z,1025.14
2016-12-27T01:28:20.231Z,1025.25
2016-12-27T01:29:20.209Z,1025.24
2016-12-27T01:30:20.190Z,1025.33
2016-12-27T01:31:20.169Z,1025.31
2016-12-27T01:32:20.146Z,1025.33
2016-12-27T01:33:20.124Z,1025.32
2016-12-27T01:34:20.205Z,1025.32
2016-12-27T01:35:20.085Z,1025.41
2016-12-27T01:36:20.066Z,1025.32
2016-12-27T01:37:20.043Z,1025.36
2016-12-27T01:38:20.022Z,1025.36
2016-12-27T01:39:20.002Z,1025.39
2016-12-27T01:40:19.983Z,1025.39
2016-12-27T01:41:19.963Z,1025.39
2016-12-27T01:42:19.941Z,1025.38
2016-12-27T01:43:19.923Z,1025.45
2016-12-27T01:44:19.898Z,1025.44
2016-12-27T01:45:19.880Z,1025.46
2016-12-27T01:46:19.855Z,1025.41
2016-12-27T01:47:19.835Z,1025.31
2016-12-27T01:48:19.815Z,1025.46
2016-12-27T01:49:19.793Z,1025.46
2016-12-27T01:50:19.773Z,1025.51
2016-12-27T01:51:19.752Z,1025.45
2016-12-27T01:52:19.732Z,1025.27
2016-12-27T01:53:19.711Z,1025.46
2016-12-27T01:54:19.690Z,1025.5
2016-12-27T01:55:19.672Z,1025.47
2016-12-27T01:56:19.649Z,1025.41
2016-12-27T01:57:19.628Z,1025.38
2016-12-27T01:58:19.610Z,1025.33
2016-12-27T01:59:19.589Z,1025.43
2016-12-27T02:00:19.566Z,1025.39
2016-12-27T02:01:19.547Z,1025.4
2016-12-27T02:02:19.529Z,1025.51
2016-12-27T02:03:19.504Z,1025.59
2016-12-27T02:04:19.484Z,1025.51
2016-12-27T02:05:19.464Z,1025.55
2016-12-27T02:06:19.442Z,1025.55
2016-12-27T02:07:19.424Z,1025.57
2016-12-27T02:08:19.403Z,1025.57
2016-12-27T02:09:19.385Z,1025.62
2016-12-27T02:10:19.361Z,1025.64
2016-12-27T02:11:19.341Z,1025.57
2016-12-27T02:12:19.319Z,1025.57
2016-12-27T02:13:19.299Z,1025.57
2016-12-27T02:14:19.281Z,1025.66
2016-12-27T02:15:19.259Z,1025.7
2016-12-27T02:16:19.239Z,1025.65
2016-12-27T02:17:19.218Z,1025.63
2016-12-27T02:18:19.196Z,1025.7
2016-12-27T02:19:19.178Z,1025.66
2016-12-27T02:20:19.159Z,1025.67
2016-12-27T02:21:19.137Z,1025.67
2016-12-27T02:22:19.115Z,1025.66
2016-12-27T02:23:19.100Z,1025.63
2016-12-27T02:24:19.074Z,1025.74
2016-12-27T02:25:19.055Z,1025.67
2016-12-27T02:26:19.035Z,1025.71
2016-12-27T02:27:19.015Z,1025.77
2016-12-27T02:28:18.994Z,1025.7
2016-12-27T02:29:18.974Z,1025.75
2016-12-27T02:30:18.954Z,1025.71
2016-12-27T02:31:18.935Z,1025.67
2016-12-27T02:32:18.912Z,1025.66
2016-12-27T02:33:18.893Z,1025.66
2016-12-27T02:34:18.872Z,1025.62
2016-12-27T02:35:18.851Z,1025.58
2016-12-27T02:36:18.831Z,1025.6
2016-12-27T02:37:18.810Z,1025.65
2016-12-27T02:38:18.790Z,1025.67
2016-12-27T02:39:18.772Z,1025.65
2016-12-27T02:40:18.749Z,1025.66
2016-12-27T02:41:18.732Z,1025.67
2016-12-27T02:42:18.709Z,1025.74
2016-12-27T02:43:18.691Z,1025.8
2016-12-27T02:44:18.669Z,1025.77
2016-12-27T02:45:18.649Z,1025.79
2016-12-27T02:46:18.626Z,1025.73
2016-12-27T02:47:18.608Z,1025.79
2016-12-27T02:48:18.588Z,1025.72
2016-12-27T02:49:18.568Z,1025.75
2016-12-27T02:50:18.547Z,1025.7
2016-12-27T02:51:18.527Z,1025.71
2016-12-27T02:52:18.507Z,1025.7
2016-12-27T02:53:18.487Z,1025.69
2016-12-27T02:54:18.464Z,1025.72
2016-12-27T02:55:18.444Z,1025.77
2016-12-27T02:56:18.424Z,1025.71
2016-12-27T02:57:18.402Z,1025.68
2016-12-27T02:58:18.381Z,1025.59
2016-12-27T02:59:18.364Z,1025.66
2016-12-27T03:00:18.343Z,1025.72
2016-12-27T03:01:18.322Z,1025.7
2016-12-27T03:02:18.299Z,1025.73
2016-12-27T03:03:18.282Z,1025.75
2016-12-27T03:04:18.262Z,1025.81
2016-12-27T03:05:18.238Z,1025.83
2016-12-27T03:06:18.220Z,1025.85
2016-12-27T03:07:18.199Z,1025.83
2016-12-27T03:08:18.179Z,1025.79
2016-12-27T03:09:18.156Z,1025.8
2016-12-27T03:10:18.137Z,1025.87
2016-12-27T03:11:18.117Z,1025.8
2016-12-27T03:12:18.096Z,1025.84
2016-12-27T03:13:18.075Z,1025.95
2016-12-27T03:14:18.055Z,1025.8
2016-12-27T03:15:18.036Z,1025.88
2016-12-27T03:16:18.016Z,1025.92
2016-12-27T03:17:17.994Z,1025.83
2016-12-27T03:18:17.974Z,1025.89
2016-12-27T03:19:17.954Z,1026.02
2016-12-27T03:20:17.934Z,1026.02
2016-12-27T03:21:17.913Z,1025.99
2016-12-27T03:22:17.895Z,1026.03
2016-12-27T03:23:17.874Z,1026.05
2016-12-27T03:24:17.853Z,1025.99
2016-12-27T03:25:17.831Z,1026.1
2016-12-27T03:26:17.815Z,1026.08
2016-12-27T03:27:17.791Z,1026.12
2016-12-27T03:28:17.771Z,1026.09
2016-12-27T03:29:17.751Z,1026.04
2016-12-27T03:30:17.729Z,1026.11
2016-12-27T03:31:17.711Z,1026.08
2016-12-27T03:32:17.690Z,1026.07
2016-12-27T03:33:17.669Z,1026.11
2016-12-27T03:34:17.647Z,1026.12
2016-12-27T03:35:17.628Z,1026.07
2016-12-27T03:36:17.611Z,1026.14
2016-12-27T03:37:17.588Z,1026.1
2016-12-27T03:38:17.567Z,1026.12
2016-12-27T03:39:17.545Z,1026.12
2016-12-27T03:40:17.529Z,1026.19
2016-12-27T03:41:17.505Z,1026.28
2016-12-27T03:42:17.486Z,1026.26
2016-12-27T03:43:17.465Z,1026.3
2016-12-27T03:44:17.446Z,1026.35
2016-12-27T03:45:17.424Z,1026.31
2016-12-27T03:46:17.403Z,1026.42
2016-12-27T03:47:17.384Z,1026.36
2016-12-27T03:48:17.363Z,1026.46
2016-12-27T03:49:17.343Z,1026.46
2016-12-27T03:50:17.323Z,1026.45
2016-12-27T03:51:17.303Z,1026.54
2016-12-27T03:52:17.286Z,1026.6
2016-12-27T03:53:17.262Z,1026.59
2016-12-27T03:54:17.241Z,1026.66
2016-12-27T03:55:17.222Z,1026.6
2016-12-27T03:56:17.202Z,1026.69
2016-12-27T03:57:17.182Z,1026.75
2016-12-27T03:58:17.162Z,1026.69
2016-12-27T03:59:17.141Z,1026.68
2016-12-27T04:00:17.121Z,1026.67
2016-12-27T04:01:17.100Z,1026.66
2016-12-27T04:02:17.080Z,1026.63
2016-12-27T04:03:17.059Z,1026.63
2016-12-27T04:04:17.040Z,1026.69
2016-12-27T04:05:17.019Z,1026.69
2016-12-27T04:06:17.001Z,1026.64
2016-12-27T04:07:16.978Z,1026.64
2016-12-27T04:08:16.962Z,1026.67
2016-12-27T04:09:16.936Z,1026.66
2016-12-27T04:10:16.916Z,1026.66
2016-12-27T04:11:16.897Z,1026.66
2016-12-27T04:12:16.877Z,1026.68
2016-12-27T04:13:16.857Z,1026.75
2016-12-27T04:14:16.837Z,1026.73
2016-12-27T04:15:16.818Z,1026.76
2016-12-27T04:16:16.797Z,1026.66
2016-12-27T04:17:16.778Z,1026.74
2016-12-27T04:18:16.755Z,1026.69
2016-12-27T04:19:16.736Z,1026.75
2016-12-27T04:20:16.717Z,1026.74
2016-12-27T04:21:16.696Z,1026.78
2016-12-27T04:22:16.677Z,1026.74
2016-12-27T04:23:16.657Z,1026.75
2016-12-27T04:24:16.637Z,1026.75
2016-12-27T04:25:16.615Z,1026.81
2016-12-27T04:26:16.596Z,1026.81
2016-12-27T04:27:16.576Z,1026.76
2016-12-27T04:28:16.557Z,1026.83
2016-12-27T04:29:16.535Z,1026.86
2016-12-27T04:30:16.516Z,1026.93
2016-12-27T04:31:16.498Z,1026.91
2016-12-27T04:32:16.478Z,1026.91
2016-12-27T04:33:16.454Z,1026.93
2016-12-27T04:34:16.435Z,1026.92
2016-12-27T04:35:16.415Z,1026.96
2016-12-27T04:36:16.394Z,1026.94
2016-12-27T04:37:16.578Z,1026.92
2016-12-27T04:38:16.358Z,1026.9
2016-12-27T04:39:16.335Z,1027.02
2016-12-27T04:40:16.315Z,1026.97
2016-12-27T04:41:16.296Z,1027.02
2016-12-27T04:42:16.276Z,1027
2016-12-27T04:43:16.255Z,1027
2016-12-27T04:44:16.233Z,1027.11
2016-12-27T04:45:16.214Z,1027.09
2016-12-27T04:46:16.198Z,1027.08
2016-12-27T04:47:16.175Z,1027.1
2016-12-27T04:48:16.154Z,1027.1
2016-12-27T04:49:16.133Z,1027.07
2016-12-27T04:50:16.117Z,1027.09
2016-12-27T04:51:16.097Z,1027.1
2016-12-27T04:52:16.074Z,1027.11
2016-12-27T04:53:16.055Z,1027.15
2016-12-27T04:54:16.031Z,1027.13
2016-12-27T04:55:16.012Z,1027.15
2016-12-27T04:56:15.993Z,1027.1
2016-12-27T04:57:15.974Z,1027.11
2016-12-27T04:58:15.951Z,1027.19
2016-12-27T04:59:15.931Z,1027.2
2016-12-27T05:00:15.912Z,1027.22
2016-12-27T05:01:15.889Z,1027.23
2016-12-27T05:02:15.870Z,1027.24
2016-12-27T05:03:15.850Z,1027.28
2016-12-27T05:04:15.832Z,1027.24
2016-12-27T05:05:15.812Z,1027.23
2016-12-27T05:06:15.790Z,1027.19
2016-12-27T05:07:15.771Z,1027.23
2016-12-27T05:08:15.751Z,1027.12
2016-12-27T05:09:15.728Z,1027.07
2016-12-27T05:10:15.711Z,1026.98
2016-12-27T05:11:15.688Z,1027.01
2016-12-27T05:12:15.669Z,1027.03
2016-12-27T05:13:15.646Z,1027.13
2016-12-27T05:14:15.627Z,1027.18
2016-12-27T05:15:15.606Z,1027.19
2016-12-27T05:16:15.584Z,1027.28
2016-12-27T05:17:15.565Z,1027.28
2016-12-27T05:18:15.544Z,1027.3
2016-12-27T05:19:15.524Z,1027.27
2016-12-27T05:20:15.503Z,1027.17
2016-12-27T05:21:15.483Z,1027.17
2016-12-27T05:22:15.465Z,1027.29
2016-12-27T05:23:15.443Z,1027.3
2016-12-27T05:24:15.426Z,1027.36
2016-12-27T05:25:15.402Z,1027.36
2016-12-27T05:26:15.383Z,1027.28
2016-12-27T05:27:15.360Z,1027.28
2016-12-27T05:28:15.341Z,1027.28
2016-12-27T05:29:15.321Z,1027.29
2016-12-27T05:30:15.303Z,1027.35
2016-12-27T05:31:15.278Z,1027.26
2016-12-27T05:32:15.259Z,1027.34
2016-12-27T05:33:15.239Z,1027.31
2016-12-27T05:34:15.218Z,1027.36
2016-12-27T05:35:15.199Z,1027.38
2016-12-27T05:36:15.179Z,1027.46
2016-12-27T05:37:15.159Z,1027.46
2016-12-27T05:38:15.140Z,1027.38
2016-12-27T05:39:15.119Z,1027.32
2016-12-27T05:40:15.098Z,1027.28
2016-12-27T05:41:15.076Z,1027.34
2016-12-27T05:42:15.055Z,1027.44
2016-12-27T05:43:15.035Z,1027.54
2016-12-27T05:44:15.018Z,1027.6
2016-12-27T05:45:14.994Z,1027.58
2016-12-27T05:46:14.976Z,1027.62
2016-12-27T05:47:14.954Z,1027.68
2016-12-27T05:48:14.934Z,1027.7
2016-12-27T05:49:14.912Z,1027.66
2016-12-27T05:50:14.894Z,1027.71
2016-12-27T05:51:14.872Z,1027.61
2016-12-27T05:52:14.853Z,1027.65
2016-12-27T05:53:14.832Z,1027.69
2016-12-27T05:54:14.810Z,1027.7
2016-12-27T05:55:14.792Z,1027.65
2016-12-27T05:56:14.771Z,1027.71
2016-12-27T05:57:14.749Z,1027.66
2016-12-27T05:58:14.730Z,1027.7
2016-12-27T05:59:14.710Z,1027.69
2016-12-27T06:00:14.689Z,1027.66
2016-12-27T06:01:14.668Z,1027.64
2016-12-27T06:02:14.648Z,1027.68
2016-12-27T06:03:14.629Z,1027.74
2016-12-27T06:04:14.607Z,1027.73
2016-12-27T06:05:14.588Z,1027.68
2016-12-27T06:06:14.566Z,1027.72
2016-12-27T06:07:14.546Z,1027.82
2016-12-27T06:08:14.526Z,1027.77
2016-12-27T06:09:14.506Z,1027.85
2016-12-27T06:10:14.486Z,1027.9
2016-12-27T06:11:14.466Z,1027.86
2016-12-27T06:12:14.445Z,1027.91
2016-12-27T06:13:14.426Z,1027.95
2016-12-27T06:14:14.404Z,1027.93
2016-12-27T06:15:14.387Z,1028.02
2016-12-27T06:16:14.370Z,1028.02
2016-12-27T06:17:14.345Z,1028.03
2016-12-27T06:18:14.321Z,1028.06
2016-12-27T06:19:14.303Z,1028.13
2016-12-27T06:20:14.282Z,1028.12
2016-12-27T06:21:14.261Z,1028.17
2016-12-27T06:22:14.242Z,1028.23
2016-12-27T06:23:14.220Z,1028.25
2016-12-27T06:24:14.200Z,1028.25
2016-12-27T06:25:14.179Z,1028.26
2016-12-27T06:26:14.160Z,1028.27
2016-12-27T06:27:14.140Z,1028.32
2016-12-27T06:28:14.121Z,1028.37
2016-12-27T06:29:14.099Z,1028.37
2016-12-27T06:30:14.079Z,1028.37
2016-12-27T06:31:14.059Z,1028.35
2016-12-27T06:32:14.037Z,1028.38
2016-12-27T06:33:14.017Z,1028.36
2016-12-27T06:34:13.996Z,1028.38
2016-12-27T06:35:13.976Z,1028.42
2016-12-27T06:36:13.956Z,1028.36
2016-12-27T06:37:14.141Z,1028.34
2016-12-27T06:38:13.919Z,1028.43
2016-12-27T06:39:13.895Z,1028.49
2016-12-27T06:40:13.876Z,1028.47
2016-12-27T06:41:13.853Z,1028.54
2016-12-27T06:42:13.835Z,1028.55
2016-12-27T06:43:13.814Z,1028.54
2016-12-27T06:44:13.797Z,1028.51
2016-12-27T06:45:13.774Z,1028.5
2016-12-27T06:46:13.753Z,1028.52
2016-12-27T06:47:13.734Z,1028.54
2016-12-27T06:48:13.714Z,1028.57
2016-12-27T06:49:13.693Z,1028.63
2016-12-27T06:50:13.674Z,1028.62
2016-12-27T06:51:13.652Z,1028.63
2016-12-27T06:52:13.631Z,1028.64
2016-12-27T06:53:13.614Z,1028.65
2016-12-27T06:54:13.591Z,1028.63
2016-12-27T06:55:13.570Z,1028.64
2016-12-27T06:56:13.550Z,1028.6
2016-12-27T06:57:13.528Z,1028.57
2016-12-27T06:58:13.509Z,1028.62
2016-12-27T06:59:13.488Z,1028.64
2016-12-27T07:00:13.469Z,1028.66
2016-12-27T07:01:13.448Z,1028.66
2016-12-27T07:02:13.426Z,1028.66
2016-12-27T07:03:13.405Z,1028.57
2016-12-27T07:04:13.385Z,1028.61
2016-12-27T07:05:13.370Z,1028.57
2016-12-27T07:06:13.345Z,1028.61
2016-12-27T07:07:13.323Z,1028.59
2016-12-27T07:08:13.305Z,1028.61
2016-12-27T07:09:13.281Z,1028.66
2016-12-27T07:10:13.261Z,1028.68
2016-12-27T07:11:13.242Z,1028.64
2016-12-27T07:12:13.221Z,1028.71
2016-12-27T07:13:13.200Z,1028.69
2016-12-27T07:14:13.182Z,1028.7
2016-12-27T07:15:13.159Z,1028.66
2016-12-27T07:16:13.142Z,1028.73
2016-12-27T07:17:13.118Z,1028.75
2016-12-27T07:18:13.097Z,1028.72
2016-12-27T07:19:13.077Z,1028.73
2016-12-27T07:20:13.055Z,1028.68
2016-12-27T07:21:13.035Z,1028.74
2016-12-27T07:22:13.016Z,1028.71
2016-12-27T07:23:12.996Z,1028.69
2016-12-27T07:24:12.975Z,1028.7
2016-12-27T07:25:12.954Z,1028.67
2016-12-27T07:26:12.933Z,1028.78
2016-12-27T07:27:12.912Z,1028.76
2016-12-27T07:28:12.892Z,1028.8
2016-12-27T07:29:12.871Z,1028.81
2016-12-27T07:30:12.850Z,1028.87
2016-12-27T07:31:12.831Z,1028.8
2016-12-27T07:32:12.809Z,1028.84
2016-12-27T07:33:12.789Z,1028.86
2016-12-27T07:34:12.770Z,1028.86
2016-12-27T07:35:12.746Z,1028.82
2016-12-27T07:36:12.728Z,1028.85
2016-12-27T07:37:12.711Z,1028.89
2016-12-27T07:38:12.688Z,1028.93
2016-12-27T07:39:12.663Z,1028.93
2016-12-27T07:40:12.647Z,1028.94
2016-12-27T07:41:12.629Z,1028.92
2016-12-27T07:42:12.607Z,1028.89
2016-12-27T07:43:12.582Z,1028.97
2016-12-27T07:44:12.563Z,1028.97
2016-12-27T07:45:12.542Z,1029.03
2016-12-27T07:46:12.521Z,1029.12
2016-12-27T07:47:12.502Z,1029.12
2016-12-27T07:48:12.479Z,1029.21
2016-12-27T07:49:12.460Z,1029.19
2016-12-27T07:50:12.439Z,1029.16
2016-12-27T07:51:12.417Z,1029.22
2016-12-27T07:52:12.400Z,1029.22
2016-12-27T07:53:12.382Z,1029.25
2016-12-27T07:54:12.359Z,1029.25
2016-12-27T07:55:12.337Z,1029.28
2016-12-27T07:56:12.320Z,1029.25
2016-12-27T07:57:12.296Z,1029.23
2016-12-27T07:58:12.276Z,1029.25
2016-12-27T07:59:12.255Z,1029.25
2016-12-27T08:00:12.233Z,1029.32
2016-12-27T08:01:12.217Z,1029.39
2016-12-27T08:02:12.193Z,1029.42
2016-12-27T08:03:12.172Z,1029.41
2016-12-27T08:04:12.151Z,1029.46
2016-12-27T08:05:12.131Z,1029.5
2016-12-27T08:06:12.111Z,1029.49
2016-12-27T08:07:12.091Z,1029.53
2016-12-27T08:08:12.069Z,1029.56
2016-12-27T08:09:12.051Z,1029.53
2016-12-27T08:10:12.031Z,1029.58
2016-12-27T08:11:12.006Z,1029.64
2016-12-27T08:12:11.987Z,1029.63
2016-12-27T08:13:11.966Z,1029.61
2016-12-27T08:14:11.946Z,1029.62
2016-12-27T08:15:11.925Z,1029.68
2016-12-27T08:16:11.905Z,1029.69
2016-12-27T08:17:11.887Z,1029.71
2016-12-27T08:18:11.864Z,1029.72
2016-12-27T08:19:11.844Z,1029.75
2016-12-27T08:20:11.822Z,1029.76
2016-12-27T08:21:11.803Z,1029.81
2016-12-27T08:22:11.784Z,1029.81
2016-12-27T08:23:11.763Z,1029.87
2016-12-27T08:24:11.747Z,1029.85
2016-12-27T08:25:11.722Z,1029.89
2016-12-27T08:26:11.701Z,1029.84
2016-12-27T08:27:11.680Z,1029.84
2016-12-27T08:28:11.664Z,1029.91
2016-12-27T08:29:11.642Z,1029.9
2016-12-27T08:30:11.695Z,1029.91
2016-12-27T08:31:11.610Z,1029.85
2016-12-27T08:32:11.581Z,1029.88
2016-12-27T08:33:11.561Z,1029.91
2016-12-27T08:34:11.539Z,1029.87
2016-12-27T08:35:11.522Z,1029.88
2016-12-27T08:36:11.502Z,1029.86
2016-12-27T08:37:11.684Z,1029.89
2016-12-27T08:38:11.461Z,1029.94
2016-12-27T08:39:11.438Z,1029.97
2016-12-27T08:40:11.420Z,1030.01
2016-12-27T08:41:11.399Z,1030.06
2016-12-27T08:42:11.380Z,1030.15
2016-12-27T08:43:11.360Z,1030.17
2016-12-27T08:44:11.337Z,1030.15
2016-12-27T08:45:11.318Z,1030.17
2016-12-27T08:46:11.297Z,1030.21
2016-12-27T08:47:11.276Z,1030.23
2016-12-27T08:48:11.258Z,1030.23
2016-12-27T08:49:11.235Z,1030.27
2016-12-27T08:50:11.218Z,1030.26
2016-12-27T08:51:11.196Z,1030.3
2016-12-27T08:52:11.176Z,1030.28
2016-12-27T08:53:11.156Z,1030.33
2016-12-27T08:54:11.137Z,1030.35
2016-12-27T08:55:11.116Z,1030.43
2016-12-27T08:56:11.095Z,1030.41
2016-12-27T08:57:11.076Z,1030.38
2016-12-27T08:58:11.055Z,1030.39
2016-12-27T08:59:11.032Z,1030.37
2016-12-27T09:00:11.013Z,1030.37
2016-12-27T09:01:10.993Z,1030.35
2016-12-27T09:02:10.975Z,1030.34
2016-12-27T09:03:10.954Z,1030.35
2016-12-27T09:04:10.936Z,1030.4
2016-12-27T09:05:10.915Z,1030.39
2016-12-27T09:06:10.945Z,1030.39
2016-12-27T09:07:10.874Z,1030.37
2016-12-27T09:08:10.857Z,1030.38
2016-12-27T09:09:10.835Z,1030.41
2016-12-27T09:10:10.816Z,1030.41
2016-12-27T09:11:10.799Z,1030.41
2016-12-27T09:12:10.776Z,1030.49
2016-12-27T09:13:10.759Z,1030.5
2016-12-27T09:14:10.738Z,1030.51
2016-12-27T09:15:10.720Z,1030.49
2016-12-27T09:16:10.701Z,1030.51
2016-12-27T09:17:10.679Z,1030.54
2016-12-27T09:18:10.660Z,1030.51
2016-12-27T09:19:10.642Z,1030.57
2016-12-27T09:20:10.622Z,1030.6
2016-12-27T09:21:10.603Z,1030.65
2016-12-27T09:22:10.584Z,1030.67
2016-12-27T09:23:10.564Z,1030.69
2016-12-27T09:24:10.547Z,1030.71
2016-12-27T09:25:10.527Z,1030.7
2016-12-27T09:26:10.506Z,1030.73
2016-12-27T09:27:10.488Z,1030.8
2016-12-27T09:28:10.467Z,1030.82
2016-12-27T09:29:10.452Z,1030.85
2016-12-27T09:30:10.429Z,1030.88
2016-12-27T09:31:10.420Z,1030.86
2016-12-27T09:32:10.389Z,1030.86
2016-12-27T09:33:10.372Z,1030.86
2016-12-27T09:34:10.353Z,1030.88
2016-12-27T09:35:10.332Z,1030.86
2016-12-27T09:36:10.314Z,1030.87
2016-12-27T09:37:10.296Z,1030.9
2016-12-27T09:38:10.277Z,1030.96
2016-12-27T09:39:10.261Z,1030.99
2016-12-27T09:40:10.241Z,1030.98
2016-12-27T09:41:10.229Z,1031.04
2016-12-27T09:42:10.199Z,1031.09
2016-12-27T09:43:10.231Z,1031.07
2016-12-27T09:44:10.162Z,1031.05
2016-12-27T09:45:10.143Z,1030.95
2016-12-27T09:46:10.123Z,1031.01
2016-12-27T09:47:10.107Z,1030.98
2016-12-27T09:48:10.090Z,1030.99
2016-12-27T09:49:10.069Z,1030.98
2016-12-27T09:50:10.050Z,1030.99
2016-12-27T09:51:10.032Z,1031
2016-12-27T09:52:10.013Z,1031.06
2016-12-27T09:53:10.016Z,1031.05
2016-12-27T09:54:09.976Z,1031.05
2016-12-27T09:55:09.958Z,1031.05
2016-12-27T09:56:09.941Z,1031.04
2016-12-27T09:57:09.925Z,1031.05
2016-12-27T09:58:09.906Z,1031.01
2016-12-27T09:59:09.887Z,1031.04
2016-12-27T10:00:09.871Z,1031.06
2016-12-27T10:01:09.854Z,1031.04
2016-12-27T10:02:09.834Z,1031.01
2016-12-27T10:03:09.817Z,1031.03
2016-12-27T10:04:09.799Z,1031.05
2016-12-27T10:05:09.782Z,1030.98
2016-12-27T10:06:09.763Z,1030.98
2016-12-27T10:07:09.746Z,1030.99
2016-12-27T10:08:09.728Z,1030.95
2016-12-27T10:09:09.712Z,1030.96
2016-12-27T10:10:09.695Z,1031.02
2016-12-27T10:11:09.678Z,1030.98
2016-12-27T10:12:09.662Z,1031
2016-12-27T10:13:09.645Z,1030.97
2016-12-27T10:14:09.628Z,1031.04
2016-12-27T10:15:09.614Z,1030.98
2016-12-27T10:16:09.595Z,1031.02
2016-12-27T10:17:09.578Z,1031.02
2016-12-27T10:18:09.564Z,1031.03
2016-12-27T10:19:09.546Z,1031.05
2016-12-27T10:20:09.531Z,1031.03
2016-12-27T10:21:09.517Z,1030.94
2016-12-27T10:22:09.501Z,1030.96
2016-12-27T10:23:09.487Z,1030.91
2016-12-27T10:24:09.472Z,1030.95
2016-12-27T10:25:09.453Z,1030.84
2016-12-27T10:26:09.440Z,1030.85
2016-12-27T10:27:09.424Z,1030.86
2016-12-27T10:28:09.408Z,1030.84
2016-12-27T10:29:09.395Z,1030.87
2016-12-27T10:30:09.378Z,1030.91
2016-12-27T10:31:09.363Z,1030.93
2016-12-27T10:32:09.345Z,1030.96
2016-12-27T10:33:09.331Z,1030.84
2016-12-27T10:34:09.316Z,1030.91
2016-12-27T10:35:09.301Z,1030.78
2016-12-27T10:36:09.284Z,1030.83
2016-12-27T10:37:09.474Z,1030.82
2016-12-27T10:38:09.258Z,1030.9
2016-12-27T10:39:09.290Z,1030.9
2016-12-27T10:40:09.225Z,1030.93
2016-12-27T10:41:09.209Z,1031
2016-12-27T10:42:09.193Z,1030.97
2016-12-27T10:43:09.183Z,1030.96
2016-12-27T10:44:09.216Z,1031.05
2016-12-27T10:45:09.150Z,1031.13
2016-12-27T10:46:09.135Z,1031.17
2016-12-27T10:47:09.121Z,1031.14
2016-12-27T10:48:09.106Z,1031.09
2016-12-27T10:49:09.091Z,1031.09
2016-12-27T10:50:09.076Z,1031.24
2016-12-27T10:51:09.063Z,1031.18
2016-12-27T10:52:09.046Z,1031.17
2016-12-27T10:53:09.031Z,1031.15
2016-12-27T10:54:09.018Z,1031.26
2016-12-27T10:55:09.004Z,1031.27
2016-12-27T10:56:08.989Z,1031.27
2016-12-27T10:57:08.975Z,1031.27
2016-12-27T10:58:08.966Z,1031.23
2016-12-27T10:59:08.947Z,1031.28
2016-12-27T11:00:08.931Z,1031.28
2016-12-27T11:01:08.918Z,1031.28
2016-12-27T11:02:08.904Z,1031.24
2016-12-27T11:03:08.887Z,1031.19
2016-12-27T11:04:08.876Z,1031.15
2016-12-27T11:05:08.863Z,1031.15
2016-12-27T11:06:08.847Z,1031.14
2016-12-27T11:07:08.837Z,1031.11
2016-12-27T11:08:08.819Z,1031.09
2016-12-27T11:09:08.804Z,1031.12
2016-12-27T11:10:08.797Z,1031.15
2016-12-27T11:11:08.776Z,1031.11
2016-12-27T11:12:08.765Z,1031.2
2016-12-27T11:13:08.750Z,1031.14
2016-12-27T11:14:08.737Z,1031.22
2016-12-27T11:15:08.723Z,1031.28
2016-12-27T11:16:08.710Z,1031.42
2016-12-27T11:17:08.694Z,1031.47
2016-12-27T11:18:08.680Z,1031.49
2016-12-27T11:19:08.681Z,1031.44
2016-12-27T11:20:08.656Z,1031.33
2016-12-27T11:21:08.638Z,1031.22
2016-12-27T11:22:08.625Z,1031.15
2016-12-27T11:23:08.612Z,1031.24
2016-12-27T11:24:08.597Z,1031.25
2016-12-27T11:25:08.585Z,1031.29
2016-12-27T11:26:08.568Z,1031.25
2016-12-27T11:27:08.556Z,1031.15
2016-12-27T11:28:08.543Z,1031.19
2016-12-27T11:29:08.528Z,1031.22
2016-12-27T11:30:08.514Z,1031.27
2016-12-27T11:31:08.503Z,1031.29
2016-12-27T11:32:08.489Z,1031.26
2016-12-27T11:33:08.473Z,1031.25
2016-12-27T11:34:08.457Z,1031.22
2016-12-27T11:35:08.443Z,1031.23
2016-12-27T11:36:08.429Z,1031.22
2016-12-27T11:37:08.415Z,1031.21
2016-12-27T11:38:08.400Z,1031.22
2016-12-27T11:39:08.396Z,1031.27
2016-12-27T11:40:08.376Z,1031.25
2016-12-27T11:41:08.364Z,1031.24
2016-12-27T11:42:08.343Z,1031.25
2016-12-27T11:43:08.328Z,1031.33
2016-12-27T11:44:08.314Z,1031.28
2016-12-27T11:45:08.298Z,1031.29
2016-12-27T11:46:08.284Z,1031.25
2016-12-27T11:47:08.269Z,1031.3
2016-12-27T11:48:08.255Z,1031.32
2016-12-27T11:49:08.246Z,1031.3
2016-12-27T11:50:08.228Z,1031.36
2016-12-27T11:51:08.210Z,1031.37
2016-12-27T11:52:08.193Z,1031.38
2016-12-27T11:53:08.183Z,1031.43
2016-12-27T11:54:08.165Z,1031.42
2016-12-27T11:55:08.248Z,1031.46
2016-12-27T11:56:08.134Z,1031.51
2016-12-27T11:57:08.119Z,1031.51
2016-12-27T11:58:08.103Z,1031.58
2016-12-27T11:59:08.088Z,1031.56
2016-12-27T12:00:08.071Z,1031.56
2016-12-27T12:01:08.058Z,1031.53
2016-12-27T12:02:08.040Z,1031.48
2016-12-27T12:03:08.027Z,1031.49
2016-12-27T12:04:08.011Z,1031.53
2016-12-27T12:05:07.995Z,1031.54
2016-12-27T12:06:07.981Z,1031.57
2016-12-27T12:07:07.967Z,1031.55
2016-12-27T12:08:07.951Z,1031.6